sensor_id;sensor_type;location;lat;lon;timestamp;pressure;altitude;pressure_sealevel;temperature;humidity
2549;BME280;1284;53.520;10.248;2022-08-19T00:01:47;100512.28;;;23.45;88.81
2549;BME280;1284;53.520;10.248;2022-08-19T00:04:14;100503.72;;;23.43;89.08
2549;BME280;1284;53.520;10.248;2022-08-19T00:06:43;100505.81;;;23.39;88.97
2549;BME280;1284;53.520;10.248;2022-08-19T00:09:12;100510.88;;;23.40;88.68
2549;BME280;1284;53.520;10.248;2022-08-19T00:11:38;100512.09;;;23.39;89.01
2549;BME280;1284;53.520;10.248;2022-08-19T00:16:52;100527.16;;;23.35;88.99
2549;BME280;1284;53.520;10.248;2022-08-19T00:19:20;100529.25;;;23.30;89.44
2549;BME280;1284;53.520;10.248;2022-08-19T00:21:46;100530.47;;;23.29;88.91
2549;BME280;1284;53.520;10.248;2022-08-19T00:24:13;100526.19;;;23.28;88.51
2549;BME280;1284;53.520;10.248;2022-08-19T00:26:40;100523.00;;;23.17;88.77
2549;BME280;1284;53.520;10.248;2022-08-19T00:29:08;100519.59;;;23.26;88.78
2549;BME280;1284;53.520;10.248;2022-08-19T00:31:34;100518.69;;;23.29;88.43
2549;BME280;1284;53.520;10.248;2022-08-19T00:34:01;100516.16;;;23.35;88.78
2549;BME280;1284;53.520;10.248;2022-08-19T00:36:26;100514.06;;;23.39;88.45
2549;BME280;1284;53.520;10.248;2022-08-19T00:38:53;100499.44;;;23.42;88.43
2549;BME280;1284;53.520;10.248;2022-08-19T00:41:21;100487.66;;;23.41;88.22
2549;BME280;1284;53.520;10.248;2022-08-19T00:44:03;100486.16;;;23.40;88.16
2549;BME280;1284;53.520;10.248;2022-08-19T00:46:29;100477.66;;;23.35;88.71
2549;BME280;1284;53.520;10.248;2022-08-19T00:48:56;100485.69;;;23.42;88.23
2549;BME280;1284;53.520;10.248;2022-08-19T00:51:24;100481.25;;;23.44;88.18
2549;BME280;1284;53.520;10.248;2022-08-19T00:53:52;100484.06;;;23.32;88.85
2549;BME280;1284;53.520;10.248;2022-08-19T00:56:18;100481.97;;;23.36;88.94
2549;BME280;1284;53.520;10.248;2022-08-19T00:58:43;100477.56;;;23.25;89.19
2549;BME280;1284;53.520;10.248;2022-08-19T01:01:09;100489.03;;;23.24;89.32
2549;BME280;1284;53.520;10.248;2022-08-19T01:03:35;100491.66;;;23.27;89.61
2549;BME280;1284;53.520;10.248;2022-08-19T01:06:00;100488.25;;;23.23;90.11
2549;BME280;1284;53.520;10.248;2022-08-19T01:08:26;100493.88;;;23.20;90.50
2549;BME280;1284;53.520;10.248;2022-08-19T01:10:56;100487.94;;;23.21;90.71
2549;BME280;1284;53.520;10.248;2022-08-19T01:13:23;100490.94;;;23.14;90.65
2549;BME280;1284;53.520;10.248;2022-08-19T01:15:54;100487.94;;;23.21;90.46
2549;BME280;1284;53.520;10.248;2022-08-19T01:18:21;100487.78;;;23.25;90.46
2549;BME280;1284;53.520;10.248;2022-08-19T01:20:47;100486.72;;;23.22;90.51
2549;BME280;1284;53.520;10.248;2022-08-19T01:23:13;100482.94;;;23.29;90.08
2549;BME280;1284;53.520;10.248;2022-08-19T01:25:51;100494.41;;;23.27;90.08
2549;BME280;1284;53.520;10.248;2022-08-19T01:28:23;100500.22;;;22.95;91.66
2549;BME280;1284;53.520;10.248;2022-08-19T01:30:51;100496.88;;;23.00;92.05
2549;BME280;1284;53.520;10.248;2022-08-19T01:33:17;100485.25;;;22.96;92.03
2549;BME280;1284;53.520;10.248;2022-08-19T01:35:44;100481.03;;;23.17;91.45
2549;BME280;1284;53.520;10.248;2022-08-19T01:38:20;100474.75;;;23.16;91.01
2549;BME280;1284;53.520;10.248;2022-08-19T01:40:46;100467.72;;;23.15;90.74
2549;BME280;1284;53.520;10.248;2022-08-19T01:43:11;100460.00;;;23.23;90.78
2549;BME280;1284;53.520;10.248;2022-08-19T01:45:37;100457.03;;;23.17;90.55
2549;BME280;1284;53.520;10.248;2022-08-19T01:48:08;100460.03;;;23.10;90.68
2549;BME280;1284;53.520;10.248;2022-08-19T01:50:36;100464.22;;;23.15;90.85
2549;BME280;1284;53.520;10.248;2022-08-19T01:53:05;100454.47;;;23.01;91.19
2549;BME280;1284;53.520;10.248;2022-08-19T01:55:31;100452.13;;;23.12;90.83
2549;BME280;1284;53.520;10.248;2022-08-19T01:58:00;100450.25;;;23.09;91.12
2549;BME280;1284;53.520;10.248;2022-08-19T02:00:30;100444.44;;;23.07;91.31
2549;BME280;1284;53.520;10.248;2022-08-19T02:02:56;100438.13;;;22.85;91.89
2549;BME280;1284;53.520;10.248;2022-08-19T02:05:22;100435.78;;;22.96;92.29
2549;BME280;1284;53.520;10.248;2022-08-19T02:07:48;100444.47;;;22.95;92.31
2549;BME280;1284;53.520;10.248;2022-08-19T02:10:17;100440.41;;;22.99;91.54
2549;BME280;1284;53.520;10.248;2022-08-19T02:12:44;100442.50;;;22.95;92.01
2549;BME280;1284;53.520;10.248;2022-08-19T02:15:11;100450.19;;;23.00;91.59
2549;BME280;1284;53.520;10.248;2022-08-19T02:17:37;100435.91;;;22.93;92.36
2549;BME280;1284;53.520;10.248;2022-08-19T02:20:04;100436.44;;;23.00;92.15
2549;BME280;1284;53.520;10.248;2022-08-19T02:22:31;100454.75;;;22.82;92.27
2549;BME280;1284;53.520;10.248;2022-08-19T02:24:57;100447.25;;;22.82;92.43
2549;BME280;1284;53.520;10.248;2022-08-19T02:27:23;100445.84;;;22.78;93.30
2549;BME280;1284;53.520;10.248;2022-08-19T02:29:50;100439.56;;;22.77;93.13
2549;BME280;1284;53.520;10.248;2022-08-19T02:32:16;100443.44;;;22.80;93.20
2549;BME280;1284;53.520;10.248;2022-08-19T02:34:41;100453.06;;;22.84;93.02
2549;BME280;1284;53.520;10.248;2022-08-19T02:37:07;100452.53;;;22.89;93.26
2549;BME280;1284;53.520;10.248;2022-08-19T02:39:53;100449.31;;;22.91;93.29
2549;BME280;1284;53.520;10.248;2022-08-19T02:42:18;100454.16;;;22.87;93.60
2549;BME280;1284;53.520;10.248;2022-08-19T02:44:44;100450.09;;;22.91;93.79
2549;BME280;1284;53.520;10.248;2022-08-19T02:47:10;100449.31;;;23.03;92.95
2549;BME280;1284;53.520;10.248;2022-08-19T02:49:36;100437.41;;;23.06;92.59
2549;BME280;1284;53.520;10.248;2022-08-19T02:52:02;100438.38;;;23.12;92.53
2549;BME280;1284;53.520;10.248;2022-08-19T02:54:28;100441.47;;;23.14;91.95
2549;BME280;1284;53.520;10.248;2022-08-19T02:56:53;100435.44;;;23.07;92.29
2549;BME280;1284;53.520;10.248;2022-08-19T02:59:19;100432.38;;;23.05;92.09
2549;BME280;1284;53.520;10.248;2022-08-19T03:01:45;100434.09;;;23.11;91.71
2549;BME280;1284;53.520;10.248;2022-08-19T03:04:13;100444.66;;;23.13;91.41
2549;BME280;1284;53.520;10.248;2022-08-19T03:06:43;100436.88;;;22.99;91.67
2549;BME280;1284;53.520;10.248;2022-08-19T03:09:09;100435.91;;;22.93;92.09
2549;BME280;1284;53.520;10.248;2022-08-19T03:11:35;100440.50;;;22.96;92.03
2549;BME280;1284;53.520;10.248;2022-08-19T03:14:01;100447.25;;;22.82;92.78
2549;BME280;1284;53.520;10.248;2022-08-19T03:16:28;100445.06;;;22.77;93.11
2549;BME280;1284;53.520;10.248;2022-08-19T03:18:56;100443.75;;;22.69;93.68
2549;BME280;1284;53.520;10.248;2022-08-19T03:21:27;100443.00;;;22.69;93.28
2549;BME280;1284;53.520;10.248;2022-08-19T03:23:57;100445.97;;;22.74;93.55
2549;BME280;1284;53.520;10.248;2022-08-19T03:26:23;100434.41;;;22.67;94.25
2549;BME280;1284;53.520;10.248;2022-08-19T03:28:48;100429.81;;;22.76;93.47
2549;BME280;1284;53.520;10.248;2022-08-19T03:31:17;100433.63;;;22.79;93.87
2549;BME280;1284;53.520;10.248;2022-08-19T03:33:42;100441.84;;;22.91;93.43
2549;BME280;1284;53.520;10.248;2022-08-19T03:36:28;100433.81;;;22.97;92.71
2549;BME280;1284;53.520;10.248;2022-08-19T03:38:57;100445.59;;;22.97;92.54
2549;BME280;1284;53.520;10.248;2022-08-19T03:41:35;100468.09;;;22.92;92.41
2549;BME280;1284;53.520;10.248;2022-08-19T03:44:02;100469.88;;;22.86;92.88
2549;BME280;1284;53.520;10.248;2022-08-19T03:46:30;100476.16;;;22.87;93.48
2549;BME280;1284;53.520;10.248;2022-08-19T03:48:57;100484.25;;;22.90;92.90
2549;BME280;1284;53.520;10.248;2022-08-19T03:51:31;100488.31;;;22.98;93.17
2549;BME280;1284;53.520;10.248;2022-08-19T03:53:59;100488.78;;;22.97;92.56
2549;BME280;1284;53.520;10.248;2022-08-19T03:56:26;100491.97;;;22.95;92.96
2549;BME280;1284;53.520;10.248;2022-08-19T03:58:57;100495.47;;;22.96;93.07
2549;BME280;1284;53.520;10.248;2022-08-19T04:01:25;100495.69;;;23.01;92.76
2549;BME280;1284;53.520;10.248;2022-08-19T04:03:52;100500.88;;;22.99;92.95
2549;BME280;1284;53.520;10.248;2022-08-19T04:06:20;100505.56;;;22.99;93.23
2549;BME280;1284;53.520;10.248;2022-08-19T04:08:48;100501.84;;;22.93;93.55
2549;BME280;1284;53.520;10.248;2022-08-19T04:11:18;100505.13;;;23.00;92.73
2549;BME280;1284;53.520;10.248;2022-08-19T04:13:46;100502.06;;;22.98;93.01
2549;BME280;1284;53.520;10.248;2022-08-19T04:16:13;100502.63;;;22.93;93.04
2549;BME280;1284;53.520;10.248;2022-08-19T04:18:39;100508.34;;;22.86;93.89
2549;BME280;1284;53.520;10.248;2022-08-19T04:21:06;100510.53;;;22.91;94.08
2549;BME280;1284;53.520;10.248;2022-08-19T04:23:33;100514.47;;;22.90;93.60
2549;BME280;1284;53.520;10.248;2022-08-19T04:25:59;100520.88;;;22.87;93.71
2549;BME280;1284;53.520;10.248;2022-08-19T04:28:25;100520.00;;;22.78;94.56
2549;BME280;1284;53.520;10.248;2022-08-19T04:30:53;100517.16;;;22.81;94.59
2549;BME280;1284;53.520;10.248;2022-08-19T04:35:52;100513.00;;;22.64;96.04
2549;BME280;1284;53.520;10.248;2022-08-19T04:38:21;100517.91;;;22.69;95.98
2549;BME280;1284;53.520;10.248;2022-08-19T04:40:51;100515.06;;;22.60;96.01
2549;BME280;1284;53.520;10.248;2022-08-19T04:43:37;100508.78;;;22.47;96.78
2549;BME280;1284;53.520;10.248;2022-08-19T04:46:10;100507.63;;;22.61;96.89
2549;BME280;1284;53.520;10.248;2022-08-19T04:48:37;100515.63;;;22.68;96.10
2549;BME280;1284;53.520;10.248;2022-08-19T04:51:07;100508.25;;;22.77;95.83
2549;BME280;1284;53.520;10.248;2022-08-19T04:53:34;100524.94;;;22.83;95.13
2549;BME280;1284;53.520;10.248;2022-08-19T04:56:13;100517.16;;;22.81;95.13
2549;BME280;1284;53.520;10.248;2022-08-19T04:58:41;100522.63;;;22.81;94.59
2549;BME280;1284;53.520;10.248;2022-08-19T05:01:11;100522.72;;;22.90;94.75
2549;BME280;1284;53.520;10.248;2022-08-19T05:03:36;100526.91;;;22.95;94.35
2549;BME280;1284;53.520;10.248;2022-08-19T05:06:08;100533.38;;;22.88;94.07
2549;BME280;1284;53.520;10.248;2022-08-19T05:08:36;100538.47;;;22.90;94.24
2549;BME280;1284;53.520;10.248;2022-08-19T05:11:29;100530.53;;;22.92;94.08
2549;BME280;1284;53.520;10.248;2022-08-19T05:13:53;100535.81;;;22.99;93.44
2549;BME280;1284;53.520;10.248;2022-08-19T05:16:20;100534.69;;;22.96;93.76
2549;BME280;1284;53.520;10.248;2022-08-19T05:18:47;100538.44;;;23.02;93.81
2549;BME280;1284;53.520;10.248;2022-08-19T05:21:31;100540.84;;;23.00;93.76
2549;BME280;1284;53.520;10.248;2022-08-19T05:24:16;100551.41;;;23.02;93.63
2549;BME280;1284;53.520;10.248;2022-08-19T05:26:44;100548.22;;;23.03;93.82
2549;BME280;1284;53.520;10.248;2022-08-19T05:29:18;100549.53;;;22.99;93.51
2549;BME280;1284;53.520;10.248;2022-08-19T05:31:44;100546.13;;;22.95;94.25
2549;BME280;1284;53.520;10.248;2022-08-19T05:34:11;100544.91;;;22.96;94.47
2549;BME280;1284;53.520;10.248;2022-08-19T05:36:40;100541.50;;;22.92;94.54
2549;BME280;1284;53.520;10.248;2022-08-19T05:39:07;100545.47;;;22.91;94.40
2549;BME280;1284;53.520;10.248;2022-08-19T05:41:34;100544.63;;;22.81;94.60
2549;BME280;1284;53.520;10.248;2022-08-19T05:44:04;100539.13;;;22.81;94.22
2549;BME280;1284;53.520;10.248;2022-08-19T05:46:38;100542.41;;;22.89;94.36
2549;BME280;1284;53.520;10.248;2022-08-19T05:49:05;100546.47;;;22.84;94.60
2549;BME280;1284;53.520;10.248;2022-08-19T05:51:32;100538.47;;;22.77;95.29
2549;BME280;1284;53.520;10.248;2022-08-19T05:54:00;100538.47;;;22.77;95.13
2549;BME280;1284;53.520;10.248;2022-08-19T05:56:26;100531.09;;;22.87;95.07
2549;BME280;1284;53.520;10.248;2022-08-19T05:58:52;100533.94;;;22.83;94.78
2549;BME280;1284;53.520;10.248;2022-08-19T06:01:19;100540.00;;;22.78;95.37
2549;BME280;1284;53.520;10.248;2022-08-19T06:03:46;100540.00;;;22.78;95.08
2549;BME280;1284;53.520;10.248;2022-08-19T06:06:14;100534.59;;;22.75;96.19
2549;BME280;1284;53.520;10.248;2022-08-19T06:08:40;100533.41;;;22.76;95.74
2549;BME280;1284;53.520;10.248;2022-08-19T06:11:34;100534.41;;;22.69;95.88
2549;BME280;1284;53.520;10.248;2022-08-19T06:14:03;100528.69;;;22.76;95.54
2549;BME280;1284;53.520;10.248;2022-08-19T06:16:29;100537.56;;;22.80;95.31
2549;BME280;1284;53.520;10.248;2022-08-19T06:18:56;100540.63;;;22.82;95.19
2549;BME280;1284;53.520;10.248;2022-08-19T06:21:24;100535.06;;;22.86;94.67
2549;BME280;1284;53.520;10.248;2022-08-19T06:23:51;100545.50;;;22.78;95.34
2549;BME280;1284;53.520;10.248;2022-08-19T06:26:17;100546.03;;;22.86;95.06
2549;BME280;1284;53.520;10.248;2022-08-19T06:28:45;100536.59;;;22.87;94.73
2549;BME280;1284;53.520;10.248;2022-08-19T06:31:15;100536.59;;;22.87;95.34
2549;BME280;1284;53.520;10.248;2022-08-19T06:33:42;100536.78;;;22.92;95.30
2549;BME280;1284;53.520;10.248;2022-08-19T06:36:37;100529.97;;;22.97;94.58
2549;BME280;1284;53.520;10.248;2022-08-19T06:39:09;100523.38;;;23.07;94.23
2549;BME280;1284;53.520;10.248;2022-08-19T06:41:45;100522.94;;;23.08;93.66
2549;BME280;1284;53.520;10.248;2022-08-19T06:44:17;100527.44;;;23.15;93.44
2549;BME280;1284;53.520;10.248;2022-08-19T06:46:43;100527.97;;;23.10;93.52
2549;BME280;1284;53.520;10.248;2022-08-19T06:49:09;100538.50;;;23.11;93.45
2549;BME280;1284;53.520;10.248;2022-08-19T06:51:37;100533.66;;;23.15;93.32
2549;BME280;1284;53.520;10.248;2022-08-19T06:54:04;100534.31;;;23.19;92.92
2549;BME280;1284;53.520;10.248;2022-08-19T06:56:31;100537.97;;;23.16;93.20
2549;BME280;1284;53.520;10.248;2022-08-19T06:59:05;100530.72;;;23.22;93.66
2549;BME280;1284;53.520;10.248;2022-08-19T07:01:34;100526.50;;;23.30;92.80
2549;BME280;1284;53.520;10.248;2022-08-19T07:04:00;100523.78;;;23.18;92.89
2549;BME280;1284;53.520;10.248;2022-08-19T07:06:26;100531.03;;;23.24;92.92
2549;BME280;1284;53.520;10.248;2022-08-19T07:08:52;100513.31;;;23.25;92.91
2549;BME280;1284;53.520;10.248;2022-08-19T07:11:18;100513.09;;;23.33;92.67
2549;BME280;1284;53.520;10.248;2022-08-19T07:13:44;100509.00;;;23.37;92.58
2549;BME280;1284;53.520;10.248;2022-08-19T07:16:16;100508.75;;;23.44;92.08
2549;BME280;1284;53.520;10.248;2022-08-19T07:18:49;100533.41;;;23.48;92.00
2549;BME280;1284;53.520;10.248;2022-08-19T07:21:22;100514.97;;;23.23;91.99
2549;BME280;1284;53.520;10.248;2022-08-19T07:23:49;100522.66;;;23.28;92.66
2549;BME280;1284;53.520;10.248;2022-08-19T07:26:24;100530.22;;;23.37;92.68
2549;BME280;1284;53.520;10.248;2022-08-19T07:28:50;100528.13;;;23.41;92.49
2549;BME280;1284;53.520;10.248;2022-08-19T07:31:18;100535.72;;;23.49;92.47
2549;BME280;1284;53.520;10.248;2022-08-19T07:36:13;100551.94;;;23.56;91.77
2549;BME280;1284;53.520;10.248;2022-08-19T07:38:42;100544.47;;;23.57;91.75
2549;BME280;1284;53.520;10.248;2022-08-19T07:41:13;100552.03;;;23.65;91.39
2549;BME280;1284;53.520;10.248;2022-08-19T07:43:39;100559.66;;;23.61;91.45
2549;BME280;1284;53.520;10.248;2022-08-19T07:46:06;100555.88;;;23.68;91.30
2549;BME280;1284;53.520;10.248;2022-08-19T07:48:32;100558.94;;;23.70;91.11
2549;BME280;1284;53.520;10.248;2022-08-19T07:51:00;100577.66;;;23.75;91.11
2549;BME280;1284;53.520;10.248;2022-08-19T07:53:30;100572.00;;;23.78;90.80
2549;BME280;1284;53.520;10.248;2022-08-19T07:55:56;100578.84;;;23.74;90.60
2549;BME280;1284;53.520;10.248;2022-08-19T07:58:30;100584.34;;;23.74;90.69
2549;BME280;1284;53.520;10.248;2022-08-19T08:00:56;100585.66;;;23.69;90.39
2549;BME280;1284;53.520;10.248;2022-08-19T08:03:23;100592.28;;;23.72;90.36
2549;BME280;1284;53.520;10.248;2022-08-19T08:06:08;100590.22;;;23.63;90.69
2549;BME280;1284;53.520;10.248;2022-08-19T08:08:52;100602.44;;;23.62;90.75
2549;BME280;1284;53.520;10.248;2022-08-19T08:14:26;100602.56;;;23.59;90.79
2549;BME280;1284;53.520;10.248;2022-08-19T08:16:53;100598.38;;;23.54;91.34
2549;BME280;1284;53.520;10.248;2022-08-19T08:19:21;100595.81;;;23.60;91.11
2549;BME280;1284;53.520;10.248;2022-08-19T08:21:48;100600.47;;;23.50;91.24
2549;BME280;1284;53.520;10.248;2022-08-19T08:24:15;100605.69;;;23.36;91.58
2549;BME280;1284;53.520;10.248;2022-08-19T08:26:41;100613.25;;;23.44;91.69
2549;BME280;1284;53.520;10.248;2022-08-19T08:29:11;100599.94;;;23.43;91.82
2549;BME280;1284;53.520;10.248;2022-08-19T08:31:39;100609.19;;;23.49;91.24
2549;BME280;1284;53.520;10.248;2022-08-19T08:34:05;100614.69;;;23.49;91.52
2549;BME280;1284;53.520;10.248;2022-08-19T08:36:30;100611.47;;;23.50;91.72
2549;BME280;1284;53.520;10.248;2022-08-19T08:38:59;100611.25;;;23.57;91.02
2549;BME280;1284;53.520;10.248;2022-08-19T08:41:36;100606.88;;;23.47;91.70
2549;BME280;1284;53.520;10.248;2022-08-19T08:44:05;100613.25;;;23.44;92.03
2549;BME280;1284;53.520;10.248;2022-08-19T08:47:02;100610.41;;;23.48;92.21
2549;BME280;1284;53.520;10.248;2022-08-19T08:52:09;100617.50;;;23.58;91.60
2549;BME280;1284;53.520;10.248;2022-08-19T08:54:43;100622.47;;;23.63;91.42
2549;BME280;1284;53.520;10.248;2022-08-19T08:57:13;100619.72;;;23.63;91.15
2549;BME280;1284;53.520;10.248;2022-08-19T08:59:41;100613.47;;;23.50;92.13
2549;BME280;1284;53.520;10.248;2022-08-19T09:02:09;100617.94;;;23.56;92.08
2549;BME280;1284;53.520;10.248;2022-08-19T09:04:38;100615.41;;;23.62;92.10
2549;BME280;1284;53.520;10.248;2022-08-19T09:07:28;100627.19;;;23.62;91.48
2549;BME280;1284;53.520;10.248;2022-08-19T09:10:31;100618.47;;;23.64;90.77
2549;BME280;1284;53.520;10.248;2022-08-19T09:15:42;100627.38;;;23.68;91.32
2549;BME280;1284;53.520;10.248;2022-08-19T09:18:09;100624.63;;;23.68;91.27
2549;BME280;1284;53.520;10.248;2022-08-19T09:20:35;100631.38;;;23.67;91.47
2549;BME280;1284;53.520;10.248;2022-08-19T09:23:01;100624.19;;;23.69;91.09
2549;BME280;1284;53.520;10.248;2022-08-19T09:25:27;100624.31;;;23.66;91.09
2549;BME280;1284;53.520;10.248;2022-08-19T09:27:53;100627.97;;;23.63;91.41
2549;BME280;1284;53.520;10.248;2022-08-19T09:30:26;100619.13;;;23.68;91.14
2549;BME280;1284;53.520;10.248;2022-08-19T09:32:54;100626.72;;;23.64;91.17
2549;BME280;1284;53.520;10.248;2022-08-19T09:35:25;100615.00;;;23.51;91.61
2549;BME280;1284;53.520;10.248;2022-08-19T09:37:52;100622.38;;;23.54;91.53
2549;BME280;1284;53.520;10.248;2022-08-19T09:40:18;100620.81;;;23.53;91.92
2549;BME280;1284;53.520;10.248;2022-08-19T09:42:45;100620.50;;;23.51;92.17
2549;BME280;1284;53.520;10.248;2022-08-19T09:45:15;100613.34;;;23.53;92.68
2549;BME280;1284;53.520;10.248;2022-08-19T09:47:42;100620.91;;;23.62;92.26
2549;BME280;1284;53.520;10.248;2022-08-19T09:50:09;100614.09;;;23.66;92.22
2549;BME280;1284;53.520;10.248;2022-08-19T09:52:36;100619.00;;;23.71;92.20
2549;BME280;1284;53.520;10.248;2022-08-19T09:57:33;100622.78;;;23.65;92.22
2549;BME280;1284;53.520;10.248;2022-08-19T09:59:58;100625.41;;;23.68;92.07
2549;BME280;1284;53.520;10.248;2022-08-19T10:02:24;100623.31;;;23.72;92.03
2549;BME280;1284;53.520;10.248;2022-08-19T10:04:50;100616.25;;;23.71;92.10
2549;BME280;1284;53.520;10.248;2022-08-19T10:07:35;100610.22;;;23.64;92.48
2549;BME280;1284;53.520;10.248;2022-08-19T10:10:02;100616.56;;;23.52;92.71
2549;BME280;1284;53.520;10.248;2022-08-19T10:12:27;100612.91;;;23.55;92.81
2549;BME280;1284;53.520;10.248;2022-08-19T10:14:53;100622.47;;;23.63;92.33
2549;BME280;1284;53.520;10.248;2022-08-19T10:17:19;100622.22;;;23.70;92.25
2549;BME280;1284;53.520;10.248;2022-08-19T10:19:45;100629.25;;;23.71;92.19
2549;BME280;1284;53.520;10.248;2022-08-19T10:22:10;100624.72;;;23.77;92.08
2549;BME280;1284;53.520;10.248;2022-08-19T10:24:39;100619.56;;;23.79;92.14
2549;BME280;1284;53.520;10.248;2022-08-19T10:27:04;100629.34;;;23.80;91.85
2549;BME280;1284;53.520;10.248;2022-08-19T10:29:31;100628.69;;;23.76;92.07
2549;BME280;1284;53.520;10.248;2022-08-19T10:31:58;100626.19;;;23.69;92.21
2549;BME280;1284;53.520;10.248;2022-08-19T10:34:26;100632.34;;;23.73;92.13
2549;BME280;1284;53.520;10.248;2022-08-19T10:36:52;100634.19;;;23.76;92.19
2549;BME280;1284;53.520;10.248;2022-08-19T10:39:20;100637.84;;;23.73;91.84
2549;BME280;1284;53.520;10.248;2022-08-19T10:41:46;100637.25;;;23.78;91.99
2549;BME280;1284;53.520;10.248;2022-08-19T10:44:13;100631.13;;;23.74;91.97
2549;BME280;1284;53.520;10.248;2022-08-19T10:46:42;100628.34;;;23.74;91.96
2549;BME280;1284;53.520;10.248;2022-08-19T10:49:12;100624.50;;;23.71;92.19
2549;BME280;1284;53.520;10.248;2022-08-19T10:54:42;100623.19;;;23.76;92.59
2549;BME280;1284;53.520;10.248;2022-08-19T10:57:30;100620.19;;;23.83;91.96
2549;BME280;1284;53.520;10.248;2022-08-19T10:59:56;100618.97;;;23.84;92.22
2549;BME280;1284;53.520;10.248;2022-08-19T11:02:21;100620.28;;;23.92;92.29
2549;BME280;1284;53.520;10.248;2022-08-19T11:04:47;100620.91;;;23.96;92.29
2549;BME280;1284;53.520;10.248;2022-08-19T11:07:14;100616.28;;;23.93;91.11
2549;BME280;1284;53.520;10.248;2022-08-19T11:09:41;100620.47;;;23.97;91.35
2549;BME280;1284;53.520;10.248;2022-08-19T11:12:08;100626.44;;;23.96;91.20
2549;BME280;1284;53.520;10.248;2022-08-19T11:14:35;100625.06;;;24.00;91.14
2549;BME280;1284;53.520;10.248;2022-08-19T11:17:02;100628.97;;;23.90;91.36
2549;BME280;1284;53.520;10.248;2022-08-19T11:19:29;100628.72;;;23.97;90.96
2549;BME280;1284;53.520;10.248;2022-08-19T11:21:55;100628.72;;;23.97;90.89
2549;BME280;1284;53.520;10.248;2022-08-19T11:24:23;100625.97;;;23.97;90.77
2549;BME280;1284;53.520;10.248;2022-08-19T11:26:51;100627.94;;;23.97;90.83
2549;BME280;1284;53.520;10.248;2022-08-19T11:29:19;100627.94;;;23.97;90.90
2549;BME280;1284;53.520;10.248;2022-08-19T11:31:46;100623.88;;;24.01;91.21
2549;BME280;1284;53.520;10.248;2022-08-19T11:34:15;100611.56;;;24.06;91.23
2549;BME280;1284;53.520;10.248;2022-08-19T11:36:44;100608.53;;;24.13;90.86
2549;BME280;1284;53.520;10.248;2022-08-19T11:39:12;100613.31;;;24.00;91.33
2549;BME280;1284;53.520;10.248;2022-08-19T11:41:38;100609.31;;;24.01;91.55
2549;BME280;1284;53.520;10.248;2022-08-19T11:44:04;100614.16;;;24.09;91.29
2549;BME280;1284;53.520;10.248;2022-08-19T11:46:30;100604.56;;;24.14;91.21
2549;BME280;1284;53.520;10.248;2022-08-19T11:48:57;100604.00;;;24.19;90.93
2549;BME280;1284;53.520;10.248;2022-08-19T11:51:24;100608.25;;;24.20;91.11
2549;BME280;1284;53.520;10.248;2022-08-19T11:53:50;100603.53;;;24.21;90.89
2549;BME280;1284;53.520;10.248;2022-08-19T11:56:18;100614.41;;;24.24;90.50
2549;BME280;1284;53.520;10.248;2022-08-19T11:58:47;100624.22;;;24.25;90.41
2549;BME280;1284;53.520;10.248;2022-08-19T12:01:17;100624.41;;;24.31;90.17
2549;BME280;1284;53.520;10.248;2022-08-19T12:03:48;100621.16;;;24.23;89.45
2549;BME280;1284;53.520;10.248;2022-08-19T12:06:29;100617.81;;;24.28;89.66
2549;BME280;1284;53.520;10.248;2022-08-19T12:09:01;100610.19;;;24.32;89.55
2549;BME280;1284;53.520;10.248;2022-08-19T12:11:28;100609.72;;;24.34;89.59
2549;BME280;1284;53.520;10.248;2022-08-19T12:13:55;100619.72;;;24.40;89.50
2549;BME280;1284;53.520;10.248;2022-08-19T12:16:25;100612.31;;;24.28;89.04
2549;BME280;1284;53.520;10.248;2022-08-19T12:18:52;100611.78;;;24.21;89.94
2549;BME280;1284;53.520;10.248;2022-08-19T12:21:20;100609.91;;;24.39;89.54
2549;BME280;1284;53.520;10.248;2022-08-19T12:23:50;100607.09;;;24.52;89.40
2549;BME280;1284;53.520;10.248;2022-08-19T12:26:17;100607.00;;;24.64;89.25
2549;BME280;1284;53.520;10.248;2022-08-19T12:28:43;100610.16;;;24.75;88.85
2549;BME280;1284;53.520;10.248;2022-08-19T12:31:09;100603.59;;;24.82;88.34
2549;BME280;1284;53.520;10.248;2022-08-19T12:33:37;100616.72;;;24.78;87.77
2549;BME280;1284;53.520;10.248;2022-08-19T12:36:06;100609.09;;;24.82;87.44
2549;BME280;1284;53.520;10.248;2022-08-19T12:38:31;100603.09;;;24.74;86.98
2549;BME280;1284;53.520;10.248;2022-08-19T12:40:57;100605.59;;;24.81;86.54
2549;BME280;1284;53.520;10.248;2022-08-19T12:43:23;100609.09;;;24.82;86.46
2549;BME280;1284;53.520;10.248;2022-08-19T12:45:49;100609.25;;;24.78;87.22
2549;BME280;1284;53.520;10.248;2022-08-19T12:48:14;100609.41;;;24.84;87.40
2549;BME280;1284;53.520;10.248;2022-08-19T12:50:41;100607.59;;;24.90;87.34
2549;BME280;1284;53.520;10.248;2022-08-19T12:53:07;100608.53;;;24.96;87.21
2549;BME280;1284;53.520;10.248;2022-08-19T12:55:33;100602.88;;;24.99;87.05
2549;BME280;1284;53.520;10.248;2022-08-19T12:57:58;100608.88;;;25.07;87.06
2549;BME280;1284;53.520;10.248;2022-08-19T13:00:27;100600.66;;;25.16;86.54
2549;BME280;1284;53.520;10.248;2022-08-19T13:02:53;100600.22;;;25.27;86.96
2549;BME280;1284;53.520;10.248;2022-08-19T13:05:25;100602.72;;;25.43;87.00
2549;BME280;1284;53.520;10.248;2022-08-19T13:07:52;100604.28;;;25.62;86.16
2549;BME280;1284;53.520;10.248;2022-08-19T13:10:22;100600.59;;;25.83;84.76
2549;BME280;1284;53.520;10.248;2022-08-19T13:12:50;100603.84;;;26.09;84.08
2549;BME280;1284;53.520;10.248;2022-08-19T13:15:17;100602.91;;;26.30;82.96
2549;BME280;1284;53.520;10.248;2022-08-19T13:17:47;100595.31;;;26.48;82.46
2549;BME280;1284;53.520;10.248;2022-08-19T13:20:18;100595.31;;;26.57;80.74
2549;BME280;1284;53.520;10.248;2022-08-19T13:22:45;100594.66;;;26.62;80.21
2549;BME280;1284;53.520;10.248;2022-08-19T13:25:12;100597.88;;;26.70;79.88
2549;BME280;1284;53.520;10.248;2022-08-19T13:27:39;100591.56;;;26.69;79.59
2549;BME280;1284;53.520;10.248;2022-08-19T13:30:08;100589.13;;;26.71;79.61